Time;durP1;ratioP1;P1;durP2;ratioP2;P2;SDS_P1;SDS_P2;PMS_P1;PMS_P2;Temp;Humidity;BMP_temperature;BMP_pressure;BME280_temperature;BME280_humidity;BME280_pressure;Samples;Min_cycle;Max_cycle;Signal;HPM_P1;HPM_P2
2021/08/28 00:00:04;;;;;;;;;4.33;4.33;;;;;;;;5141312;27;45540;-75
2021/08/28 00:02:29;;;;;;;;;4.00;3.00;;;;;;;;5141136;27;47443;-75
2021/08/28 00:04:55;;;;;;;;;2.67;2.67;;;;;;;;5141054;27;45247;-75
2021/08/28 00:07:20;;;;;;;;;6.00;6.00;;;;;;;;5141049;27;45370;-75
2021/08/28 00:09:46;;;;;;;;;5.00;4.67;;;;;;;;5141111;27;45243;-75
2021/08/28 00:12:11;;;;;;;;;4.33;4.33;;;;;;;;5140819;27;46908;-75
2021/08/28 00:14:36;;;;;;;;;5.67;5.67;;;;;;;;5140797;27;45296;-75
2021/08/28 00:17:02;;;;;;;;;3.67;3.67;;;;;;;;5141136;27;45238;-75
2021/08/28 00:19:27;;;;;;;;;4.00;4.00;;;;;;;;5142138;27;45218;-75
2021/08/28 00:21:53;;;;;;;;;5.33;5.33;;;;;;;;5140805;27;47922;-75
2021/08/28 00:24:18;;;;;;;;;5.33;5.00;;;;;;;;5140873;27;45183;-75
2021/08/28 00:26:43;;;;;;;;;5.00;4.67;;;;;;;;5157248;27;45513;-75
2021/08/28 00:29:09;;;;;;;;;3.67;2.67;;;;;;;;5163255;27;45424;-75
2021/08/28 00:31:34;;;;;;;;;6.33;6.33;;;;;;;;5124381;27;46843;-75
2021/08/28 00:33:59;;;;;;;;;5.00;5.00;;;;;;;;5142204;27;45230;-75
2021/08/28 00:36:25;;;;;;;;;6.00;6.00;;;;;;;;5123317;27;45512;-74
2021/08/28 00:38:50;;;;;;;;;5.33;5.33;;;;;;;;5123319;27;45359;-75
2021/08/28 00:41:16;;;;;;;;;4.00;4.00;;;;;;;;5123086;27;45756;-75
2021/08/28 00:43:41;;;;;;;;;4.33;3.00;;;;;;;;5123326;27;45255;-75
2021/08/28 00:46:07;;;;;;;;;4.67;3.00;;;;;;;;5123465;27;45348;-75
2021/08/28 00:48:32;;;;;;;;;6.33;5.67;;;;;;;;5123264;27;47338;-75
2021/08/28 00:50:58;;;;;;;;;4.00;3.00;;;;;;;;5122543;27;46505;-75
2021/08/28 00:53:23;;;;;;;;;4.00;4.00;;;;;;;;5123118;27;45303;-75
2021/08/28 00:55:49;;;;;;;;;4.00;4.00;;;;;;;;5123235;27;45293;-75
2021/08/28 00:58:15;;;;;;;;;4.00;4.00;;;;;;;;5123122;27;45907;-76
2021/08/28 01:00:46;;;;;;;;;5.33;5.00;;;;;;;;5122809;27;47045;-75
2021/08/28 01:03:12;;;;;;;;;6.67;4.00;;;;;;;;5141799;27;45291;-76
2021/08/28 01:05:46;;;;;;;;;3.00;3.00;;;;;;;;5122925;27;45341;-75
2021/08/28 01:08:22;;;;;;;;;4.00;4.00;;;;;;;;5122809;27;45983;-75
2021/08/28 01:11:07;;;;;;;;;4.00;3.67;;;;;;;;5122629;27;47204;-75
2021/08/28 01:13:34;;;;;;;;;5.00;4.33;;;;;;;;5122745;27;45358;-75
2021/08/28 01:16:00;;;;;;;;;4.00;4.00;;;;;;;;5122961;27;45402;-75
2021/08/28 01:18:27;;;;;;;;;4.00;3.33;;;;;;;;5122837;27;46888;-75
2021/08/28 01:20:58;;;;;;;;;4.00;4.00;;;;;;;;5122430;27;45553;-75
2021/08/28 01:23:25;;;;;;;;;4.00;4.00;;;;;;;;5122535;27;45355;-75
2021/08/28 01:25:51;;;;;;;;;7.33;5.00;;;;;;;;5149830;27;45180;-75
2021/08/28 01:28:18;;;;;;;;;4.00;4.00;;;;;;;;5147199;27;45802;-75
2021/08/28 01:30:44;;;;;;;;;4.00;4.00;;;;;;;;5146800;27;46723;-75
2021/08/28 01:33:10;;;;;;;;;4.00;3.00;;;;;;;;5147117;27;45276;-75
2021/08/28 01:35:36;;;;;;;;;4.33;4.33;;;;;;;;5146963;27;45348;-75
2021/08/28 01:38:02;;;;;;;;;4.67;4.00;;;;;;;;5146886;27;46968;-75
2021/08/28 01:40:28;;;;;;;;;7.00;5.67;;;;;;;;5146759;27;46524;-75
2021/08/28 01:42:54;;;;;;;;;6.00;5.00;;;;;;;;5146939;27;45604;-75
2021/08/28 01:45:23;;;;;;;;;5.33;5.33;;;;;;;;5147013;27;45328;-74
2021/08/28 01:47:50;;;;;;;;;7.33;6.00;;;;;;;;5165747;27;45413;-75
2021/08/28 01:50:18;;;;;;;;;6.00;6.00;;;;;;;;5146229;27;48108;-75
2021/08/28 01:52:43;;;;;;;;;7.33;6.33;;;;;;;;5165578;27;45282;-75
2021/08/28 01:55:09;;;;;;;;;4.33;4.33;;;;;;;;5146961;27;45285;-75
2021/08/28 01:57:35;;;;;;;;;5.00;4.00;;;;;;;;5146492;27;45294;-75
2021/08/28 02:00:01;;;;;;;;;8.00;8.00;;;;;;;;5146665;27;46791;-76
2021/08/28 02:02:26;;;;;;;;;8.00;7.00;;;;;;;;5146709;27;45435;-75
2021/08/28 02:04:52;;;;;;;;;7.00;6.33;;;;;;;;5146735;27;45257;-75
2021/08/28 02:07:23;;;;;;;;;8.33;5.67;;;;;;;;5146439;27;45352;-75
2021/08/28 02:09:57;;;;;;;;;6.00;6.00;;;;;;;;5146322;27;45666;-75
2021/08/28 02:12:28;;;;;;;;;8.00;6.00;;;;;;;;5146339;27;45307;-75
2021/08/28 02:14:59;;;;;;;;;6.33;5.67;;;;;;;;5146472;27;45204;-75
2021/08/28 02:17:29;;;;;;;;;5.00;5.00;;;;;;;;5146480;27;45518;-74
2021/08/28 02:20:01;;;;;;;;;5.00;5.00;;;;;;;;5145982;27;45443;-75
2021/08/28 02:22:31;;;;;;;;;10.00;8.00;;;;;;;;5146245;27;45231;-74
2021/08/28 02:25:00;;;;;;;;;5.00;5.00;;;;;;;;5146188;27;45345;-75
2021/08/28 02:27:25;;;;;;;;;5.67;4.33;;;;;;;;5165047;27;45474;-75
2021/08/28 02:30:08;;;;;;;;;3.33;3.33;;;;;;;;5145811;27;48282;-75
2021/08/28 02:32:34;;;;;;;;;6.67;5.00;;;;;;;;5146140;27;45306;-75
2021/08/28 02:35:00;;;;;;;;;4.00;2.33;;;;;;;;5145878;27;45414;-75
2021/08/28 02:37:26;;;;;;;;;8.33;6.33;;;;;;;;5146052;27;46071;-75
2021/08/28 02:39:53;;;;;;;;;4.67;4.00;;;;;;;;5145840;27;46725;-75
2021/08/28 02:42:18;;;;;;;;;3.33;3.33;;;;;;;;5145767;27;45253;-75
2021/08/28 02:44:48;;;;;;;;;5.00;4.33;;;;;;;;5145961;27;45228;-75
2021/08/28 02:47:13;;;;;;;;;3.00;3.00;;;;;;;;5145874;27;47257;-74
2021/08/28 02:49:39;;;;;;;;;3.33;3.00;;;;;;;;5145399;27;47911;-75
2021/08/28 02:52:05;;;;;;;;;9.00;5.00;;;;;;;;5145609;27;45633;-75
2021/08/28 02:54:31;;;;;;;;;6.67;5.33;;;;;;;;5145936;27;45260;-75
2021/08/28 02:56:58;;;;;;;;;4.00;4.00;;;;;;;;5145753;27;45487;-75
2021/08/28 02:59:24;;;;;;;;;4.33;4.33;;;;;;;;5145610;27;46408;-75
2021/08/28 03:01:50;;;;;;;;;4.67;4.00;;;;;;;;5145672;27;45253;-75
2021/08/28 03:04:16;;;;;;;;;4.33;4.33;;;;;;;;5145644;27;45363;-75
2021/08/28 03:06:42;;;;;;;;;4.00;3.00;;;;;;;;5145547;27;45336;-75
2021/08/28 03:09:07;;;;;;;;;3.00;3.00;;;;;;;;5145436;27;46531;-75
2021/08/28 03:11:33;;;;;;;;;5.00;5.00;;;;;;;;5145344;27;45403;-75
2021/08/28 03:13:58;;;;;;;;;4.33;4.33;;;;;;;;5145743;27;45327;-76
2021/08/28 03:16:26;;;;;;;;;6.67;6.00;;;;;;;;5145445;27;45347;-75
2021/08/28 03:18:53;;;;;;;;;5.00;5.00;;;;;;;;5145238;27;45630;-74
2021/08/28 03:21:19;;;;;;;;;5.00;5.00;;;;;;;;5145049;27;45289;-74
2021/08/28 03:23:47;;;;;;;;;5.67;5.33;;;;;;;;5145351;27;45312;-76
2021/08/28 03:26:14;;;;;;;;;3.33;3.00;;;;;;;;5145033;27;45347;-75
2021/08/28 03:28:40;;;;;;;;;5.00;5.00;;;;;;;;5145207;27;45390;-75
2021/08/28 03:31:06;;;;;;;;;6.33;5.67;;;;;;;;5144861;27;45378;-76
2021/08/28 03:33:31;;;;;;;;;4.00;4.00;;;;;;;;5145182;27;45278;-75
2021/08/28 03:35:57;;;;;;;;;3.00;3.00;;;;;;;;5144994;27;45748;-75
2021/08/28 03:38:23;;;;;;;;;5.00;5.00;;;;;;;;5144847;27;46929;-75
2021/08/28 03:40:48;;;;;;;;;7.33;5.33;;;;;;;;5145073;27;45238;-75
2021/08/28 03:43:14;;;;;;;;;5.33;5.33;;;;;;;;5145053;27;45301;-75
2021/08/28 03:45:40;;;;;;;;;4.00;3.67;;;;;;;;5144903;27;45261;-75
2021/08/28 03:48:08;;;;;;;;;8.33;6.33;;;;;;;;5144321;27;45668;-75
2021/08/28 03:50:33;;;;;;;;;4.33;4.33;;;;;;;;5144433;27;45414;-75
2021/08/28 03:52:59;;;;;;;;;6.00;5.33;;;;;;;;5144822;27;45426;-75
2021/08/28 03:55:24;;;;;;;;;5.00;5.00;;;;;;;;5144809;27;47060;-75
2021/08/28 03:57:50;;;;;;;;;6.67;4.67;;;;;;;;5144743;27;45888;-75
2021/08/28 04:00:15;;;;;;;;;5.00;4.67;;;;;;;;5144751;27;45251;-75
2021/08/28 04:02:41;;;;;;;;;6.00;5.00;;;;;;;;5144811;27;45395;-75
2021/08/28 04:05:06;;;;;;;;;6.00;6.00;;;;;;;;5144313;27;45938;-75
2021/08/28 04:07:36;;;;;;;;;4.67;4.00;;;;;;;;5144340;27;46211;-75
2021/08/28 04:10:02;;;;;;;;;6.67;4.00;;;;;;;;5144585;27;45397;-75
2021/08/28 04:12:27;;;;;;;;;4.33;4.33;;;;;;;;5144577;27;45235;-75
2021/08/28 04:14:53;;;;;;;;;6.00;4.67;;;;;;;;5144595;27;45571;-75
2021/08/28 04:17:18;;;;;;;;;4.00;4.00;;;;;;;;5144458;27;47580;-75
2021/08/28 04:19:44;;;;;;;;;3.33;3.33;;;;;;;;5144190;27;45260;-76
2021/08/28 04:22:09;;;;;;;;;4.67;3.33;;;;;;;;5144381;27;45254;-75
2021/08/28 04:24:35;;;;;;;;;3.00;3.00;;;;;;;;5144329;27;45271;-75
2021/08/28 04:27:03;;;;;;;;;5.67;5.67;;;;;;;;5140615;27;46183;-75
2021/08/28 04:29:31;;;;;;;;;4.00;4.00;;;;;;;;5142266;27;45285;-74
2021/08/28 04:31:56;;;;;;;;;5.67;4.00;;;;;;;;5144388;27;45308;-74
2021/08/28 04:34:22;;;;;;;;;5.00;5.00;;;;;;;;5143869;27;45238;-75
2021/08/28 04:36:47;;;;;;;;;4.00;4.00;;;;;;;;5144133;27;46399;-75
2021/08/28 04:39:13;;;;;;;;;5.67;5.67;;;;;;;;5144172;27;45364;-74
2021/08/28 04:41:38;;;;;;;;;5.67;5.67;;;;;;;;5144193;27;45298;-74
2021/08/28 04:44:04;;;;;;;;;5.33;4.67;;;;;;;;5144137;27;45295;-74
2021/08/28 04:46:29;;;;;;;;;4.00;4.00;;;;;;;;5143748;27;46468;-74
2021/08/28 04:48:55;;;;;;;;;5.00;5.00;;;;;;;;5144198;27;45343;-74
2021/08/28 04:51:20;;;;;;;;;7.00;5.33;;;;;;;;5143544;27;45335;-75
2021/08/28 04:53:46;;;;;;;;;3.67;3.00;;;;;;;;5162787;27;45516;-75
2021/08/28 04:56:11;;;;;;;;;6.00;4.33;;;;;;;;5143768;27;46887;-75
2021/08/28 04:58:37;;;;;;;;;3.67;3.67;;;;;;;;5162767;27;45203;-74
2021/08/28 05:01:02;;;;;;;;;3.00;3.00;;;;;;;;5142846;27;45305;-74
2021/08/28 05:03:28;;;;;;;;;4.67;4.67;;;;;;;;5143806;27;46832;-74
2021/08/28 05:05:54;;;;;;;;;3.00;3.00;;;;;;;;5143491;27;45709;-74
2021/08/28 05:08:23;;;;;;;;;7.00;6.00;;;;;;;;5143822;27;45328;-74
2021/08/28 05:10:49;;;;;;;;;6.00;5.00;;;;;;;;5143584;27;45325;-74
2021/08/28 05:13:14;;;;;;;;;6.00;4.67;;;;;;;;5143625;27;45460;-74
2021/08/28 05:15:40;;;;;;;;;7.33;6.33;;;;;;;;5143403;27;47282;-75
2021/08/28 05:18:06;;;;;;;;;6.67;4.67;;;;;;;;5143981;27;45305;-74
2021/08/28 05:20:31;;;;;;;;;5.00;5.00;;;;;;;;5143445;27;45304;-74
2021/08/28 05:22:57;;;;;;;;;5.00;4.00;;;;;;;;5143406;27;45204;-75
2021/08/28 05:25:22;;;;;;;;;7.00;6.00;;;;;;;;5146372;27;45467;-74
2021/08/28 05:27:47;;;;;;;;;5.00;4.00;;;;;;;;5164382;27;45237;-75
2021/08/28 05:30:16;;;;;;;;;7.33;5.67;;;;;;;;5156655;27;45667;-74
2021/08/28 05:32:43;;;;;;;;;4.33;4.33;;;;;;;;5143247;27;45283;-75
2021/08/28 05:35:08;;;;;;;;;8.00;7.00;;;;;;;;5143080;27;46690;-75
2021/08/28 05:37:34;;;;;;;;;7.33;5.33;;;;;;;;5143044;27;45376;-74
2021/08/28 05:39:59;;;;;;;;;6.33;6.33;;;;;;;;5143586;27;45263;-75
2021/08/28 05:42:25;;;;;;;;;5.33;4.00;;;;;;;;5143130;27;46666;-75
2021/08/28 05:44:50;;;;;;;;;5.00;5.00;;;;;;;;5162218;27;45989;-74
2021/08/28 05:47:16;;;;;;;;;7.00;5.67;;;;;;;;5143152;27;45257;-75
2021/08/28 05:49:41;;;;;;;;;7.00;7.00;;;;;;;;5143298;27;45230;-74
2021/08/28 05:52:06;;;;;;;;;6.67;4.33;;;;;;;;5142648;27;45290;-74
2021/08/28 05:54:32;;;;;;;;;6.00;6.00;;;;;;;;5143136;27;47156;-75
2021/08/28 05:56:57;;;;;;;;;5.00;4.00;;;;;;;;5143160;27;45226;-74
2021/08/28 05:59:23;;;;;;;;;4.33;4.33;;;;;;;;5143408;27;45228;-75
2021/08/28 06:01:48;;;;;;;;;5.00;5.00;;;;;;;;5142994;27;45188;-75
2021/08/28 06:04:13;;;;;;;;;6.33;5.67;;;;;;;;5142847;27;47207;-75
2021/08/28 06:06:39;;;;;;;;;5.67;5.67;;;;;;;;5142746;27;45340;-74
2021/08/28 06:09:04;;;;;;;;;5.67;5.67;;;;;;;;5143277;27;45914;-74
2021/08/28 06:11:30;;;;;;;;;4.00;4.00;;;;;;;;5143339;27;45262;-74
2021/08/28 06:13:55;;;;;;;;;5.67;5.33;;;;;;;;5146609;27;46299;-74
2021/08/28 06:16:21;;;;;;;;;4.00;4.00;;;;;;;;5146351;27;45366;-74
2021/08/28 06:18:46;;;;;;;;;5.00;5.00;;;;;;;;5146574;27;45352;-75
2021/08/28 06:21:12;;;;;;;;;7.33;6.00;;;;;;;;5145887;27;45335;-74
2021/08/28 06:23:37;;;;;;;;;9.00;7.33;;;;;;;;5146268;27;45961;-74
2021/08/28 06:26:03;;;;;;;;;7.33;6.33;;;;;;;;5165059;27;45279;-74
2021/08/28 06:28:28;;;;;;;;;6.67;6.67;;;;;;;;5165262;27;45231;-74
2021/08/28 06:30:54;;;;;;;;;4.00;4.00;;;;;;;;5131960;27;45539;-74
2021/08/28 06:33:19;;;;;;;;;7.00;6.00;;;;;;;;5125294;27;46985;-73
2021/08/28 06:35:45;;;;;;;;;6.00;6.00;;;;;;;;5125082;27;45317;-74
2021/08/28 06:38:10;;;;;;;;;6.00;5.67;;;;;;;;5125350;27;45328;-74
2021/08/28 06:40:36;;;;;;;;;10.00;6.33;;;;;;;;5144044;27;45454;-74
2021/08/28 06:43:01;;;;;;;;;5.00;5.00;;;;;;;;5143696;27;45422;-75
2021/08/28 06:45:26;;;;;;;;;6.67;5.33;;;;;;;;5125293;27;45370;-74
2021/08/28 06:47:52;;;;;;;;;7.00;6.00;;;;;;;;5124829;27;45296;-75
2021/08/28 06:50:17;;;;;;;;;5.33;5.00;;;;;;;;5124968;27;46891;-74
2021/08/28 06:52:43;;;;;;;;;4.67;4.67;;;;;;;;5124738;27;46800;-75
2021/08/28 06:55:08;;;;;;;;;6.33;6.00;;;;;;;;5124924;27;45271;-74
2021/08/28 06:57:34;;;;;;;;;3.33;3.33;;;;;;;;5125200;27;45286;-74
2021/08/28 06:59:59;;;;;;;;;8.00;5.33;;;;;;;;5143680;27;45277;-74
2021/08/28 07:02:24;;;;;;;;;10.00;7.00;;;;;;;;5143565;27;45521;-74
2021/08/28 07:04:50;;;;;;;;;6.00;6.00;;;;;;;;5124932;27;45399;-74
2021/08/28 07:07:15;;;;;;;;;6.67;6.67;;;;;;;;5143564;27;45632;-74
2021/08/28 07:09:40;;;;;;;;;8.33;8.33;;;;;;;;5124698;27;45711;-75
2021/08/28 07:12:06;;;;;;;;;7.00;5.00;;;;;;;;5143384;27;45383;-75
2021/08/28 07:14:31;;;;;;;;;7.67;6.67;;;;;;;;5124572;27;45365;-74
2021/08/28 07:16:57;;;;;;;;;6.67;6.33;;;;;;;;5143647;27;45248;-74
2021/08/28 07:19:22;;;;;;;;;9.33;7.00;;;;;;;;5124297;27;45515;-76
2021/08/28 07:21:48;;;;;;;;;6.67;6.00;;;;;;;;5143196;27;45383;-74
2021/08/28 07:24:13;;;;;;;;;10.67;8.33;;;;;;;;5123561;27;45332;-74
2021/08/28 07:26:38;;;;;;;;;8.67;8.00;;;;;;;;5138720;27;45412;-74
2021/08/28 07:29:04;;;;;;;;;7.00;7.00;;;;;;;;5145381;27;45348;-74
2021/08/28 07:31:30;;;;;;;;;9.00;7.33;;;;;;;;5163729;27;45361;-74
2021/08/28 07:33:55;;;;;;;;;7.67;7.33;;;;;;;;5164143;27;45288;-75
2021/08/28 07:36:21;;;;;;;;;8.00;7.00;;;;;;;;5163980;27;45190;-75
2021/08/28 07:38:46;;;;;;;;;8.33;6.67;;;;;;;;5163896;27;45492;-76
2021/08/28 07:41:12;;;;;;;;;9.00;9.00;;;;;;;;5163998;27;45362;-74
2021/08/28 07:43:37;;;;;;;;;9.33;9.33;;;;;;;;5145027;27;45576;-76
2021/08/28 07:46:02;;;;;;;;;11.33;10.00;;;;;;;;5163971;27;45566;-76
2021/08/28 07:48:28;;;;;;;;;9.00;8.67;;;;;;;;5163831;27;45276;-75
2021/08/28 07:50:53;;;;;;;;;12.67;12.67;;;;;;;;5163349;27;46376;-75
2021/08/28 07:53:18;;;;;;;;;11.67;10.33;;;;;;;;5144890;27;45559;-75
2021/08/28 07:55:44;;;;;;;;;13.67;13.00;;;;;;;;5144866;27;45276;-76
2021/08/28 07:58:09;;;;;;;;;15.67;13.67;;;;;;;;5144895;27;45593;-75
2021/08/28 08:00:34;;;;;;;;;12.33;12.33;;;;;;;;5163679;27;45348;-76
2021/08/28 08:03:00;;;;;;;;;12.67;11.33;;;;;;;;5144673;27;45265;-75
2021/08/28 08:05:25;;;;;;;;;14.67;14.33;;;;;;;;5163620;27;45188;-75
2021/08/28 08:07:50;;;;;;;;;14.00;14.00;;;;;;;;5163536;27;45434;-75
2021/08/28 08:10:16;;;;;;;;;12.67;12.67;;;;;;;;5144512;27;46563;-74
2021/08/28 08:12:44;;;;;;;;;11.00;10.67;;;;;;;;5144567;27;45276;-75
2021/08/28 08:15:09;;;;;;;;;13.67;12.33;;;;;;;;5144748;27;45316;-74
2021/08/28 08:17:35;;;;;;;;;12.00;11.00;;;;;;;;5144481;27;45710;-74
2021/08/28 08:20:00;;;;;;;;;11.33;11.33;;;;;;;;5144289;27;45837;-74
2021/08/28 08:22:26;;;;;;;;;16.00;14.33;;;;;;;;5163250;27;45317;-74
2021/08/28 08:24:51;;;;;;;;;16.67;14.33;;;;;;;;5144496;27;45284;-74
2021/08/28 08:27:17;;;;;;;;;14.33;13.00;;;;;;;;5162793;27;45281;-75
2021/08/28 08:29:46;;;;;;;;;14.00;12.67;;;;;;;;5162810;27;45580;-75
2021/08/28 08:32:17;;;;;;;;;15.00;12.00;;;;;;;;5143853;27;45479;-76
2021/08/28 08:34:46;;;;;;;;;13.67;13.00;;;;;;;;5143689;27;45272;-75
2021/08/28 08:37:11;;;;;;;;;61.75;48.00;;;;;;;;5143773;27;45583;-75
2021/08/28 08:39:37;;;;;;;;;13.67;13.00;;;;;;;;5143981;27;46625;-75
2021/08/28 08:42:05;;;;;;;;;12.33;12.33;;;;;;;;5143928;27;45274;-74
2021/08/28 08:44:32;;;;;;;;;16.33;12.67;;;;;;;;5144256;27;45319;-74
2021/08/28 08:47:14;;;;;;;;;10.00;10.00;;;;;;;;5143642;27;45317;-74
2021/08/28 08:49:42;;;;;;;;;9.33;9.33;;;;;;;;5129393;27;46778;-74
2021/08/28 08:52:15;;;;;;;;;11.00;10.00;;;;;;;;5122458;27;45337;-75
2021/08/28 08:54:41;;;;;;;;;13.00;11.00;;;;;;;;5106534;27;45545;-74
2021/08/28 08:57:07;;;;;;;;;12.67;11.33;;;;;;;;5102140;27;45564;-75
2021/08/28 08:59:32;;;;;;;;;10.00;10.00;;;;;;;;5102173;27;46501;-74
2021/08/28 09:01:58;;;;;;;;;9.00;8.33;;;;;;;;5102163;27;45326;-74
2021/08/28 09:04:24;;;;;;;;;11.33;10.00;;;;;;;;5102338;27;45290;-74
2021/08/28 09:06:50;;;;;;;;;13.67;11.00;;;;;;;;5101840;27;45456;-74
2021/08/28 09:09:15;;;;;;;;;11.00;9.33;;;;;;;;5102246;27;46210;-74
2021/08/28 09:11:59;;;;;;;;;11.00;11.00;;;;;;;;5102386;27;45559;-74
2021/08/28 09:14:25;;;;;;;;;11.33;10.67;;;;;;;;5102175;27;45325;-74
2021/08/28 09:16:51;;;;;;;;;11.00;11.00;;;;;;;;5114531;27;45335;-74
2021/08/28 09:19:18;;;;;;;;;12.00;9.33;;;;;;;;5137296;27;45438;-74
2021/08/28 09:21:46;;;;;;;;;9.00;8.00;;;;;;;;5120950;27;45399;-74
2021/08/28 09:24:17;;;;;;;;;9.67;9.67;;;;;;;;5122785;27;45389;-74
2021/08/28 09:26:45;;;;;;;;;11.00;9.67;;;;;;;;5133440;27;45314;-74
2021/08/28 09:29:12;;;;;;;;;7.33;7.33;;;;;;;;5139865;27;45403;-74
2021/08/28 09:31:48;;;;;;;;;8.00;8.00;;;;;;;;5122671;27;45250;-74
2021/08/28 09:34:24;;;;;;;;;10.33;9.33;;;;;;;;5122276;27;45239;-74
2021/08/28 09:36:53;;;;;;;;;10.00;6.00;;;;;;;;5101669;27;45511;-74
2021/08/28 09:39:18;;;;;;;;;7.67;7.67;;;;;;;;5116760;27;46806;-75
2021/08/28 09:41:44;;;;;;;;;8.33;8.33;;;;;;;;5140008;27;45312;-75
2021/08/28 09:44:10;;;;;;;;;7.33;7.00;;;;;;;;5128240;27;45357;-74
2021/08/28 09:46:38;;;;;;;;;7.67;7.67;;;;;;;;5140531;27;47103;-74
2021/08/28 09:49:04;;;;;;;;;7.00;6.67;;;;;;;;5143170;27;46513;-74
2021/08/28 09:51:37;;;;;;;;;5.67;5.67;;;;;;;;5142998;27;45160;-74
2021/08/28 09:54:03;;;;;;;;;7.33;5.33;;;;;;;;5143592;27;45293;-74
2021/08/28 09:56:28;;;;;;;;;6.67;6.67;;;;;;;;5143272;27;46701;-74
2021/08/28 09:58:54;;;;;;;;;7.00;6.00;;;;;;;;5144718;27;46021;-74
2021/08/28 10:01:23;;;;;;;;;6.00;6.00;;;;;;;;5143224;27;45253;-73
2021/08/28 10:03:58;;;;;;;;;6.33;6.33;;;;;;;;5143384;27;45574;-74
2021/08/28 10:06:24;;;;;;;;;6.00;5.00;;;;;;;;5143076;27;47045;-74
2021/08/28 10:08:50;;;;;;;;;8.67;8.67;;;;;;;;5144505;27;45409;-75
2021/08/28 10:11:15;;;;;;;;;11.00;11.00;;;;;;;;5143221;27;45254;-74
2021/08/28 10:13:41;;;;;;;;;11.00;10.67;;;;;;;;5143017;27;45240;-76
2021/08/28 10:16:11;;;;;;;;;12.33;12.00;;;;;;;;5143006;27;45455;-74
2021/08/28 10:18:39;;;;;;;;;12.00;12.00;;;;;;;;5143751;27;47474;-75
2021/08/28 10:21:05;;;;;;;;;14.67;11.67;;;;;;;;5142808;27;45352;-74
2021/08/28 10:23:34;;;;;;;;;11.00;11.00;;;;;;;;5144522;27;45233;-74
2021/08/28 10:26:00;;;;;;;;;12.33;10.33;;;;;;;;5151198;27;46874;-74
2021/08/28 10:28:26;;;;;;;;;9.33;9.33;;;;;;;;5163657;27;46010;-74
2021/08/28 10:30:52;;;;;;;;;12.00;11.67;;;;;;;;5164830;27;45468;-74
2021/08/28 10:33:19;;;;;;;;;11.00;11.00;;;;;;;;5165087;27;45354;-74
2021/08/28 10:35:44;;;;;;;;;12.33;12.33;;;;;;;;5164892;27;45394;-75
2021/08/28 10:38:10;;;;;;;;;13.00;11.00;;;;;;;;5145792;27;45317;-74
2021/08/28 10:40:41;;;;;;;;;8.00;8.00;;;;;;;;5165121;27;45223;-74
2021/08/28 10:43:09;;;;;;;;;10.33;9.00;;;;;;;;5141815;27;45448;-74
2021/08/28 10:45:36;;;;;;;;;9.67;8.33;;;;;;;;5145574;27;45869;-75
2021/08/28 10:48:03;;;;;;;;;12.33;9.67;;;;;;;;5164476;27;45229;-74
2021/08/28 10:50:30;;;;;;;;;9.67;9.67;;;;;;;;5164509;27;45209;-74
2021/08/28 10:52:56;;;;;;;;;11.33;10.00;;;;;;;;5164425;27;45497;-75
2021/08/28 10:55:31;;;;;;;;;7.67;7.67;;;;;;;;5143787;27;45501;-74
2021/08/28 10:58:12;;;;;;;;;8.33;8.33;;;;;;;;5138729;27;46393;-75
2021/08/28 11:00:48;;;;;;;;;8.33;8.00;;;;;;;;5144692;27;45351;-74
2021/08/28 11:03:35;;;;;;;;;8.00;6.33;;;;;;;;5145603;27;45584;-74
2021/08/28 11:06:13;;;;;;;;;8.67;7.00;;;;;;;;5145376;27;45557;-74
2021/08/28 11:08:59;;;;;;;;;10.33;7.33;;;;;;;;5145615;27;47885;-74
2021/08/28 11:11:47;;;;;;;;;6.00;6.00;;;;;;;;5164410;27;45297;-74
2021/08/28 11:14:14;;;;;;;;;8.67;8.67;;;;;;;;5145855;27;45284;-75
2021/08/28 11:16:39;;;;;;;;;6.00;6.00;;;;;;;;5145492;27;46986;-75
2021/08/28 11:19:04;;;;;;;;;5.33;5.00;;;;;;;;5145177;27;46532;-74
2021/08/28 11:21:40;;;;;;;;;5.67;5.33;;;;;;;;5164419;27;45288;-75
2021/08/28 11:24:10;;;;;;;;;5.00;5.00;;;;;;;;5164576;27;45207;-75
2021/08/28 11:26:36;;;;;;;;;5.33;5.33;;;;;;;;5163972;27;45258;-74
2021/08/28 11:29:15;;;;;;;;;4.67;4.67;;;;;;;;5145251;27;45725;-74
2021/08/28 11:32:04;;;;;;;;;9.00;6.00;;;;;;;;5163902;27;45336;-74
2021/08/28 11:34:29;;;;;;;;;6.00;5.00;;;;;;;;5164306;27;45312;-74
2021/08/28 11:37:14;;;;;;;;;3.00;3.00;;;;;;;;5163911;27;45308;-75
2021/08/28 11:39:49;;;;;;;;;4.67;4.67;;;;;;;;5163780;27;45289;-74
2021/08/28 11:42:17;;;;;;;;;13.33;13.00;;;;;;;;5144942;27;45404;-73
2021/08/28 11:44:46;;;;;;;;;4.00;4.00;;;;;;;;5145049;27;45251;-73
2021/08/28 11:47:15;;;;;;;;;4.00;4.00;;;;;;;;5144695;27;45255;-73
2021/08/28 11:49:43;;;;;;;;;5.00;4.00;;;;;;;;5144774;27;45655;-73
2021/08/28 11:52:33;;;;;;;;;5.00;5.00;;;;;;;;5151878;27;45208;-73
2021/08/28 11:55:00;;;;;;;;;5.00;4.67;;;;;;;;5144930;27;45311;-72
2021/08/28 11:57:34;;;;;;;;;7.00;7.00;;;;;;;;5144849;27;45484;-73
2021/08/28 11:59:59;;;;;;;;;6.67;5.33;;;;;;;;5144589;27;46832;-73
2021/08/28 12:02:28;;;;;;;;;5.33;5.33;;;;;;;;5144891;27;45474;-73
2021/08/28 12:04:53;;;;;;;;;6.00;6.00;;;;;;;;5144730;27;45180;-73
2021/08/28 12:07:26;;;;;;;;;5.00;4.00;;;;;;;;5144595;27;46224;-73
2021/08/28 12:09:58;;;;;;;;;6.67;6.00;;;;;;;;5142720;27;46781;-72
2021/08/28 12:12:25;;;;;;;;;5.33;5.33;;;;;;;;5144509;27;45334;-73
2021/08/28 12:14:53;;;;;;;;;3.00;3.00;;;;;;;;5144674;27;45304;-72
2021/08/28 12:17:27;;;;;;;;;4.00;4.00;;;;;;;;5144592;27;45495;-73
2021/08/28 12:19:57;;;;;;;;;4.00;4.00;;;;;;;;5143959;27;45551;-72
2021/08/28 12:22:28;;;;;;;;;4.00;4.00;;;;;;;;5144184;27;45354;-73
2021/08/28 12:24:54;;;;;;;;;3.00;3.00;;;;;;;;5144503;27;45283;-73
2021/08/28 12:28:06;;;;;;;;;4.00;4.00;;;;;;;;5162181;27;45330;-73
2021/08/28 12:30:34;;;;;;;;;3.00;3.00;;;;;;;;5133165;27;47835;-73
2021/08/28 12:33:08;;;;;;;;;4.67;4.33;;;;;;;;5123382;27;45321;-73
2021/08/28 12:35:35;;;;;;;;;6.67;6.00;;;;;;;;5123336;27;45196;-73
2021/08/28 12:38:03;;;;;;;;;4.00;4.00;;;;;;;;5123309;27;45472;-73
2021/08/28 12:40:29;;;;;;;;;3.00;3.00;;;;;;;;5123356;27;45555;-73
2021/08/28 12:42:57;;;;;;;;;3.00;3.00;;;;;;;;5123073;27;45291;-72
2021/08/28 12:45:23;;;;;;;;;3.00;3.00;;;;;;;;5123540;27;45258;-73
2021/08/28 12:47:52;;;;;;;;;4.00;4.00;;;;;;;;5122975;27;45707;-73
2021/08/28 12:50:26;;;;;;;;;3.00;3.00;;;;;;;;5122578;27;48230;-73
2021/08/28 12:53:03;;;;;;;;;3.67;3.00;;;;;;;;5141356;27;45301;-72
2021/08/28 12:55:30;;;;;;;;;4.00;3.00;;;;;;;;5123060;27;45289;-73
2021/08/28 12:58:24;;;;;;;;;3.00;3.00;;;;;;;;5123190;27;45602;-72
2021/08/28 13:00:51;;;;;;;;;4.00;3.00;;;;;;;;5112563;27;45346;-73
2021/08/28 13:03:26;;;;;;;;;2.33;2.33;;;;;;;;5141672;27;45752;-72
2021/08/28 13:06:05;;;;;;;;;4.00;4.00;;;;;;;;5123002;27;45497;-72
2021/08/28 13:08:46;;;;;;;;;5.00;3.00;;;;;;;;5122320;27;45689;-72
2021/08/28 13:11:25;;;;;;;;;3.00;3.00;;;;;;;;5119587;27;46007;-72
2021/08/28 13:13:50;;;;;;;;;2.67;2.00;;;;;;;;5141697;27;45289;-71
2021/08/28 13:16:16;;;;;;;;;1.67;1.67;;;;;;;;5141786;27;45459;-72
2021/08/28 13:18:41;;;;;;;;;2.67;2.67;;;;;;;;5141467;27;45442;-72
2021/08/28 13:21:07;;;;;;;;;2.67;2.33;;;;;;;;5141420;27;45329;-72
2021/08/28 13:23:32;;;;;;;;;4.00;4.00;;;;;;;;5126553;27;45369;-72
2021/08/28 13:25:58;;;;;;;;;3.67;3.67;;;;;;;;5145825;27;45474;-72
2021/08/28 13:28:28;;;;;;;;;4.00;3.00;;;;;;;;5166211;27;45317;-72
2021/08/28 13:30:55;;;;;;;;;3.00;3.00;;;;;;;;5165836;27;46110;-72
2021/08/28 13:33:31;;;;;;;;;2.33;2.00;;;;;;;;5166195;27;45204;-73
2021/08/28 13:35:58;;;;;;;;;5.00;3.67;;;;;;;;5147098;27;45311;-72
2021/08/28 13:38:23;;;;;;;;;4.33;3.00;;;;;;;;5165954;27;45400;-72
2021/08/28 13:40:49;;;;;;;;;3.00;3.00;;;;;;;;5165975;27;46121;-71
2021/08/28 13:43:14;;;;;;;;;4.33;4.33;;;;;;;;5165725;27;45421;-72
2021/08/28 13:45:40;;;;;;;;;2.33;2.33;;;;;;;;5166104;27;45276;-72
2021/08/28 13:48:05;;;;;;;;;3.00;2.00;;;;;;;;5165991;27;45231;-71
2021/08/28 13:50:31;;;;;;;;;4.00;4.00;;;;;;;;5165698;27;45337;-71
2021/08/28 13:52:56;;;;;;;;;3.67;3.00;;;;;;;;5165452;27;45266;-72
2021/08/28 13:55:21;;;;;;;;;4.00;2.67;;;;;;;;5165991;27;45193;-72
2021/08/28 13:57:47;;;;;;;;;2.67;2.67;;;;;;;;5165736;27;45231;-72
2021/08/28 14:00:14;;;;;;;;;3.67;3.00;;;;;;;;5165703;27;45285;-71
2021/08/28 14:02:42;;;;;;;;;2.67;2.67;;;;;;;;5165763;27;45296;-72
2021/08/28 14:05:09;;;;;;;;;3.00;3.00;;;;;;;;5165531;27;45329;-72
2021/08/28 14:07:34;;;;;;;;;3.00;3.00;;;;;;;;5165403;27;45250;-71
2021/08/28 14:09:59;;;;;;;;;5.00;4.00;;;;;;;;5165408;27;45962;-72
2021/08/28 14:12:25;;;;;;;;;4.00;4.00;;;;;;;;5165524;27;45296;-72
2021/08/28 14:14:51;;;;;;;;;4.33;3.00;;;;;;;;5165641;27;45307;-71
2021/08/28 14:17:16;;;;;;;;;4.00;4.00;;;;;;;;5165388;27;45457;-71
2021/08/28 14:19:41;;;;;;;;;3.00;3.00;;;;;;;;5165211;27;45269;-71
2021/08/28 14:22:07;;;;;;;;;4.00;4.00;;;;;;;;5165292;27;45261;-71
2021/08/28 14:24:33;;;;;;;;;2.67;2.67;;;;;;;;5165527;27;45154;-72
2021/08/28 14:26:58;;;;;;;;;3.00;3.00;;;;;;;;5165097;27;45561;-71
2021/08/28 14:29:23;;;;;;;;;4.00;4.00;;;;;;;;5165020;27;46494;-71
2021/08/28 14:31:49;;;;;;;;;4.00;4.00;;;;;;;;5165104;27;45224;-71
2021/08/28 14:34:17;;;;;;;;;5.00;4.33;;;;;;;;5164727;27;45277;-72
2021/08/28 14:36:42;;;;;;;;;3.00;3.00;;;;;;;;5165035;27;45301;-72
2021/08/28 14:39:08;;;;;;;;;2.00;2.00;;;;;;;;5165035;27;45327;-72